sensor_id;sensor_type;location;lat;lon;timestamp;pressure;altitude;pressure_sealevel;temperature;humidity
51496;BME280;37572;52.094;4.870;2024-01-10T00:00:24;103249.63;;;0.18;44.64
51496;BME280;37572;52.094;4.870;2024-01-10T00:02:49;103252.28;;;0.16;44.63
51496;BME280;37572;52.094;4.870;2024-01-10T00:05:15;103251.44;;;0.16;45.02
51496;BME280;37572;52.094;4.870;2024-01-10T00:07:40;103246.16;;;0.17;44.45
51496;BME280;37572;52.094;4.870;2024-01-10T00:10:06;103243.50;;;0.19;44.46
51496;BME280;37572;52.094;4.870;2024-01-10T00:12:31;103244.34;;;0.21;44.66
51496;BME280;37572;52.094;4.870;2024-01-10T00:15:02;103241.72;;;0.21;44.19
51496;BME280;37572;52.094;4.870;2024-01-10T00:17:27;103233.84;;;0.21;44.45
51496;BME280;37572;52.094;4.870;2024-01-10T00:19:53;103237.31;;;0.22;44.17
51496;BME280;37572;52.094;4.870;2024-01-10T00:22:18;103236.41;;;0.24;44.39
51496;BME280;37572;52.094;4.870;2024-01-10T00:24:43;103240.78;;;0.25;44.32
51496;BME280;37572;52.094;4.870;2024-01-10T00:27:09;103231.19;;;0.24;44.09
51496;BME280;37572;52.094;4.870;2024-01-10T00:29:35;103225.97;;;0.23;44.50
51496;BME280;37572;52.094;4.870;2024-01-10T00:32:00;103223.34;;;0.23;44.76
51496;BME280;37572;52.094;4.870;2024-01-10T00:34:25;103222.50;;;0.22;44.91
51496;BME280;37572;52.094;4.870;2024-01-10T00:36:51;103232.06;;;0.23;44.32
51496;BME280;37572;52.094;4.870;2024-01-10T00:39:17;103237.31;;;0.22;44.59
51496;BME280;37572;52.094;4.870;2024-01-10T00:41:42;103224.28;;;0.20;44.84
51496;BME280;37572;52.094;4.870;2024-01-10T00:44:07;103222.53;;;0.19;44.93
51496;BME280;37572;52.094;4.870;2024-01-10T00:46:33;103215.56;;;0.18;45.36
51496;BME280;37572;52.094;4.870;2024-01-10T00:48:58;103227.00;;;0.15;45.12
51496;BME280;37572;52.094;4.870;2024-01-10T00:51:24;103221.84;;;0.09;45.09
51496;BME280;37572;52.094;4.870;2024-01-10T00:53:49;103225.41;;;0.07;45.26
51496;BME280;37572;52.094;4.870;2024-01-10T00:56:14;103213.22;;;0.04;45.58
51496;BME280;37572;52.094;4.870;2024-01-10T00:58:40;103212.38;;;0.04;45.26
51496;BME280;37572;52.094;4.870;2024-01-10T01:01:06;103206.25;;;0.02;45.63
51496;BME280;37572;52.094;4.870;2024-01-10T01:03:31;103209.78;;;0.01;45.74
51496;BME280;37572;52.094;4.870;2024-01-10T01:05:57;103200.19;;;-0.01;45.66
51496;BME280;37572;52.094;4.870;2024-01-10T01:08:22;103200.22;;;-0.02;45.73
51496;BME280;37572;52.094;4.870;2024-01-10T01:10:47;103193.28;;;-0.03;45.82
51496;BME280;37572;52.094;4.870;2024-01-10T01:13:12;103183.69;;;-0.06;46.07
51496;BME280;37572;52.094;4.870;2024-01-10T01:15:38;103189.03;;;-0.10;46.13
51496;BME280;37572;52.094;4.870;2024-01-10T01:18:03;103188.13;;;-0.08;46.22
51496;BME280;37572;52.094;4.870;2024-01-10T01:20:29;103194.25;;;-0.09;46.24
51496;BME280;37572;52.094;4.870;2024-01-10T01:22:54;103195.13;;;-0.08;46.03
51496;BME280;37572;52.094;4.870;2024-01-10T01:25:19;103189.03;;;-0.10;46.17
51496;BME280;37572;52.094;4.870;2024-01-10T01:27:44;103197.78;;;-0.10;46.02
51496;BME280;37572;52.094;4.870;2024-01-10T01:30:10;103199.47;;;-0.09;45.93
51496;BME280;37572;52.094;4.870;2024-01-10T01:32:36;103194.25;;;-0.09;45.86
51496;BME280;37572;52.094;4.870;2024-01-10T01:35:02;103196.84;;;-0.09;46.02
51496;BME280;37572;52.094;4.870;2024-01-10T01:37:27;103193.38;;;-0.09;45.67
51496;BME280;37572;52.094;4.870;2024-01-10T01:39:53;103189.91;;;-0.10;46.06
51496;BME280;37572;52.094;4.870;2024-01-10T01:42:18;103186.47;;;-0.13;46.12
51496;BME280;37572;52.094;4.870;2024-01-10T01:44:43;103189.13;;;-0.15;46.44
51496;BME280;37572;52.094;4.870;2024-01-10T01:47:09;103190.03;;;-0.16;46.52
51496;BME280;37572;52.094;4.870;2024-01-10T01:49:34;103191.78;;;-0.16;46.23
51496;BME280;37572;52.094;4.870;2024-01-10T01:52:00;103196.09;;;-0.15;46.64
51496;BME280;37572;52.094;4.870;2024-01-10T01:54:26;103191.75;;;-0.15;46.55
51496;BME280;37572;52.094;4.870;2024-01-10T01:56:52;103189.06;;;-0.13;46.48
51496;BME280;37572;52.094;4.870;2024-01-10T01:59:19;103183.81;;;-0.12;46.44
51496;BME280;37572;52.094;4.870;2024-01-10T02:01:44;103179.47;;;-0.11;46.56
51496;BME280;37572;52.094;4.870;2024-01-10T02:04:10;103187.31;;;-0.11;46.63
51496;BME280;37572;52.094;4.870;2024-01-10T02:06:35;103182.09;;;-0.13;46.83
51496;BME280;37572;52.094;4.870;2024-01-10T02:09:00;103177.69;;;-0.11;46.89
51496;BME280;37572;52.094;4.870;2024-01-10T02:11:26;103176.78;;;-0.08;46.83
51496;BME280;37572;52.094;4.870;2024-01-10T02:13:52;103181.13;;;-0.07;46.91
51496;BME280;37572;52.094;4.870;2024-01-10T02:16:19;103181.13;;;-0.07;47.21
51496;BME280;37572;52.094;4.870;2024-01-10T02:18:45;103176.84;;;-0.11;47.33
51496;BME280;37572;52.094;4.870;2024-01-10T02:21:10;103176.91;;;-0.16;47.54
51496;BME280;37572;52.094;4.870;2024-01-10T02:23:36;103175.31;;;-0.23;47.87
51496;BME280;37572;52.094;4.870;2024-01-10T02:26:01;103171.91;;;-0.28;47.99
51496;BME280;37572;52.094;4.870;2024-01-10T02:28:26;103171.13;;;-0.33;47.98
51496;BME280;37572;52.094;4.870;2024-01-10T02:30:52;103171.22;;;-0.38;48.56
51496;BME280;37572;52.094;4.870;2024-01-10T02:33:20;103165.19;;;-0.42;48.45
51496;BME280;37572;52.094;4.870;2024-01-10T02:35:45;103167.84;;;-0.45;48.78
51496;BME280;37572;52.094;4.870;2024-01-10T02:38:10;103155.66;;;-0.47;48.90
51496;BME280;37572;52.094;4.870;2024-01-10T02:40:36;103157.44;;;-0.49;49.18
51496;BME280;37572;52.094;4.870;2024-01-10T02:43:01;103156.59;;;-0.50;48.90
51496;BME280;37572;52.094;4.870;2024-01-10T02:45:27;103149.63;;;-0.51;49.11
51496;BME280;37572;52.094;4.870;2024-01-10T02:47:53;103149.63;;;-0.51;49.04
51496;BME280;37572;52.094;4.870;2024-01-10T02:50:18;103144.38;;;-0.51;49.09
51496;BME280;37572;52.094;4.870;2024-01-10T02:52:43;103147.00;;;-0.51;49.22
51496;BME280;37572;52.094;4.870;2024-01-10T02:55:09;103148.78;;;-0.51;49.56
51496;BME280;37572;52.094;4.870;2024-01-10T02:57:34;103154.00;;;-0.51;49.03
51496;BME280;37572;52.094;4.870;2024-01-10T02:59:59;103154.03;;;-0.53;49.10
51496;BME280;37572;52.094;4.870;2024-01-10T03:02:24;103150.53;;;-0.53;49.35
51496;BME280;37572;52.094;4.870;2024-01-10T03:04:50;103154.91;;;-0.54;48.84
51496;BME280;37572;52.094;4.870;2024-01-10T03:07:15;103154.06;;;-0.54;49.57
51496;BME280;37572;52.094;4.870;2024-01-10T03:09:41;103160.16;;;-0.56;49.06
51496;BME280;37572;52.094;4.870;2024-01-10T03:12:06;103145.31;;;-0.55;49.05
51496;BME280;37572;52.094;4.870;2024-01-10T03:14:32;103148.81;;;-0.54;48.99
51496;BME280;37572;52.094;4.870;2024-01-10T03:16:58;103144.50;;;-0.57;49.20
51496;BME280;37572;52.094;4.870;2024-01-10T03:19:23;103138.44;;;-0.61;49.34
51496;BME280;37572;52.094;4.870;2024-01-10T03:21:48;103138.44;;;-0.61;49.10
51496;BME280;37572;52.094;4.870;2024-01-10T03:24:14;103134.06;;;-0.60;49.25
51496;BME280;37572;52.094;4.870;2024-01-10T03:26:39;103139.28;;;-0.60;49.16
51496;BME280;37572;52.094;4.870;2024-01-10T03:29:04;103133.25;;;-0.64;49.47
51496;BME280;37572;52.094;4.870;2024-01-10T03:31:31;103133.28;;;-0.65;49.15
51496;BME280;37572;52.094;4.870;2024-01-10T03:33:57;103129.84;;;-0.67;49.11
51496;BME280;37572;52.094;4.870;2024-01-10T03:36:23;103134.25;;;-0.69;49.37
51496;BME280;37572;52.094;4.870;2024-01-10T03:38:49;103130.72;;;-0.68;48.99
51496;BME280;37572;52.094;4.870;2024-01-10T03:41:15;103137.72;;;-0.69;49.17
51496;BME280;37572;52.094;4.870;2024-01-10T03:43:41;103135.06;;;-0.67;48.80
51496;BME280;37572;52.094;4.870;2024-01-10T03:46:07;103135.06;;;-0.67;49.02
51496;BME280;37572;52.094;4.870;2024-01-10T03:48:32;103124.59;;;-0.67;48.73
51496;BME280;37572;52.094;4.870;2024-01-10T03:50:57;103128.97;;;-0.66;48.83
51496;BME280;37572;52.094;4.870;2024-01-10T03:53:23;103128.97;;;-0.68;48.56
51496;BME280;37572;52.094;4.870;2024-01-10T03:55:48;103125.47;;;-0.68;48.54
51496;BME280;37572;52.094;4.870;2024-01-10T03:58:13;103126.41;;;-0.71;49.06
51496;BME280;37572;52.094;4.870;2024-01-10T04:00:39;103124.69;;;-0.73;48.76
51496;BME280;37572;52.094;4.870;2024-01-10T04:03:04;103123.06;;;-0.79;48.81
51496;BME280;37572;52.094;4.870;2024-01-10T04:05:30;103122.28;;;-0.84;48.63
51496;BME280;37572;52.094;4.870;2024-01-10T04:07:56;103120.63;;;-0.90;48.99
51496;BME280;37572;52.094;4.870;2024-01-10T04:10:22;103125.03;;;-0.94;48.85
51496;BME280;37572;52.094;4.870;2024-01-10T04:12:47;103121.63;;;-0.97;49.21
51496;BME280;37572;52.094;4.870;2024-01-10T04:15:13;103112.09;;;-1.00;49.22
51496;BME280;37572;52.094;4.870;2024-01-10T04:17:38;103112.09;;;-1.01;49.00
51496;BME280;37572;52.094;4.870;2024-01-10T04:20:04;103111.22;;;-1.02;49.61
51496;BME280;37572;52.094;4.870;2024-01-10T04:22:30;103112.09;;;-1.01;49.11
51496;BME280;37572;52.094;4.870;2024-01-10T04:24:59;103099.03;;;-1.01;49.25
51496;BME280;37572;52.094;4.870;2024-01-10T04:27:25;103103.34;;;-1.00;49.33
51496;BME280;37572;52.094;4.870;2024-01-10T04:29:50;103094.66;;;-1.01;49.03
51496;BME280;37572;52.094;4.870;2024-01-10T04:32:15;103094.66;;;-1.01;48.82
51496;BME280;37572;52.094;4.870;2024-01-10T04:34:41;103099.88;;;-1.01;48.84
51496;BME280;37572;52.094;4.870;2024-01-10T04:37:06;103099.03;;;-1.01;48.85
51496;BME280;37572;52.094;4.870;2024-01-10T04:39:34;103099.84;;;-0.99;49.02
51496;BME280;37572;52.094;4.870;2024-01-10T04:42:00;103099.88;;;-1.01;49.04
51496;BME280;37572;52.094;4.870;2024-01-10T04:44:25;103086.84;;;-1.04;49.03
51496;BME280;37572;52.094;4.870;2024-01-10T04:46:51;103092.06;;;-1.02;48.74
51496;BME280;37572;52.094;4.870;2024-01-10T04:49:16;103089.44;;;-1.02;48.92
51496;BME280;37572;52.094;4.870;2024-01-10T04:51:41;103092.94;;;-1.03;49.03
51496;BME280;37572;52.094;4.870;2024-01-10T04:54:07;103092.06;;;-1.04;48.93
51496;BME280;37572;52.094;4.870;2024-01-10T04:56:34;103093.81;;;-1.03;48.89
51496;BME280;37572;52.094;4.870;2024-01-10T04:59:01;103092.94;;;-1.03;49.12
51496;BME280;37572;52.094;4.870;2024-01-10T05:01:26;103102.50;;;-1.02;49.07
51496;BME280;37572;52.094;4.870;2024-01-10T05:03:52;103081.59;;;-1.02;48.44
51496;BME280;37572;52.094;4.870;2024-01-10T05:06:17;103082.41;;;-1.00;48.59
51496;BME280;37572;52.094;4.870;2024-01-10T05:08:42;103077.16;;;-0.99;48.81
51496;BME280;37572;52.094;4.870;2024-01-10T05:11:07;103078.88;;;-0.96;48.52
51496;BME280;37572;52.094;4.870;2024-01-10T05:13:33;103081.50;;;-0.96;48.44
51496;BME280;37572;52.094;4.870;2024-01-10T05:15:58;103084.06;;;-0.93;48.61
51496;BME280;37572;52.094;4.870;2024-01-10T05:18:23;103082.28;;;-0.91;48.62
51496;BME280;37572;52.094;4.870;2024-01-10T05:20:49;103081.34;;;-0.88;48.33
51496;BME280;37572;52.094;4.870;2024-01-10T05:23:15;103083.06;;;-0.86;48.58
51496;BME280;37572;52.094;4.870;2024-01-10T05:25:40;103077.81;;;-0.86;48.32
51496;BME280;37572;52.094;4.870;2024-01-10T05:28:05;103083.84;;;-0.81;48.01
51496;BME280;37572;52.094;4.870;2024-01-10T05:30:31;103089.03;;;-0.78;48.48
51496;BME280;37572;52.094;4.870;2024-01-10T05:32:57;103096.00;;;-0.77;48.06
51496;BME280;37572;52.094;4.870;2024-01-10T05:35:23;103083.75;;;-0.75;48.34
51496;BME280;37572;52.094;4.870;2024-01-10T05:37:49;103077.56;;;-0.72;48.44
51496;BME280;37572;52.094;4.870;2024-01-10T05:40:15;103090.63;;;-0.70;48.32
51496;BME280;37572;52.094;4.870;2024-01-10T05:42:40;103081.91;;;-0.69;48.33
51496;BME280;37572;52.094;4.870;2024-01-10T05:45:06;103081.84;;;-0.66;48.28
51496;BME280;37572;52.094;4.870;2024-01-10T05:47:31;103076.59;;;-0.65;48.02
51496;BME280;37572;52.094;4.870;2024-01-10T05:49:57;103070.44;;;-0.64;48.20
51496;BME280;37572;52.094;4.870;2024-01-10T05:52:22;103067.81;;;-0.64;48.20
51496;BME280;37572;52.094;4.870;2024-01-10T05:54:48;103069.56;;;-0.63;48.11
51496;BME280;37572;52.094;4.870;2024-01-10T05:57:13;103073.09;;;-0.65;48.49
51496;BME280;37572;52.094;4.870;2024-01-10T05:59:39;103062.63;;;-0.67;48.16
51496;BME280;37572;52.094;4.870;2024-01-10T06:02:04;103062.63;;;-0.67;48.25
51496;BME280;37572;52.094;4.870;2024-01-10T06:04:30;103061.78;;;-0.67;48.20
51496;BME280;37572;52.094;4.870;2024-01-10T06:07:00;103056.59;;;-0.69;48.63
51496;BME280;37572;52.094;4.870;2024-01-10T06:09:26;103059.19;;;-0.69;48.38
51496;BME280;37572;52.094;4.870;2024-01-10T06:11:51;103062.75;;;-0.71;48.18
51496;BME280;37572;52.094;4.870;2024-01-10T06:14:16;103060.19;;;-0.75;48.21
51496;BME280;37572;52.094;4.870;2024-01-10T06:16:42;103054.97;;;-0.76;48.23
51496;BME280;37572;52.094;4.870;2024-01-10T06:19:07;103059.41;;;-0.80;48.43
51496;BME280;37572;52.094;4.870;2024-01-10T06:21:33;103060.25;;;-0.78;48.46
51496;BME280;37572;52.094;4.870;2024-01-10T06:23:59;103060.19;;;-0.75;48.02
51496;BME280;37572;52.094;4.870;2024-01-10T06:26:24;103065.41;;;-0.73;48.12
51496;BME280;37572;52.094;4.870;2024-01-10T06:28:49;103068.84;;;-0.71;47.87
51496;BME280;37572;52.094;4.870;2024-01-10T06:31:15;103067.06;;;-0.69;47.72
51496;BME280;37572;52.094;4.870;2024-01-10T06:33:40;103065.28;;;-0.68;47.67
51496;BME280;37572;52.094;4.870;2024-01-10T06:36:05;103059.16;;;-0.67;47.31
51496;BME280;37572;52.094;4.870;2024-01-10T06:38:31;103064.47;;;-0.70;47.34
51496;BME280;37572;52.094;4.870;2024-01-10T06:40:56;103063.63;;;-0.72;47.29
51496;BME280;37572;52.094;4.870;2024-01-10T06:43:21;103060.97;;;-0.69;46.91
51496;BME280;37572;52.094;4.870;2024-01-10T06:45:47;103056.59;;;-0.70;47.10
51496;BME280;37572;52.094;4.870;2024-01-10T06:48:13;103064.44;;;-0.69;47.00
51496;BME280;37572;52.094;4.870;2024-01-10T06:50:38;103070.56;;;-0.70;47.06
51496;BME280;37572;52.094;4.870;2024-01-10T06:53:04;103055.72;;;-0.69;47.12
51496;BME280;37572;52.094;4.870;2024-01-10T06:55:29;103061.88;;;-0.72;47.30
51496;BME280;37572;52.094;4.870;2024-01-10T06:57:55;103060.19;;;-0.75;47.18
51496;BME280;37572;52.094;4.870;2024-01-10T07:00:23;103058.50;;;-0.79;47.29
51496;BME280;37572;52.094;4.870;2024-01-10T07:02:49;103062.94;;;-0.82;47.02
51496;BME280;37572;52.094;4.870;2024-01-10T07:05:15;103056.88;;;-0.84;47.29
51496;BME280;37572;52.094;4.870;2024-01-10T07:07:41;103063.00;;;-0.87;47.12
51496;BME280;37572;52.094;4.870;2024-01-10T07:10:06;103063.06;;;-0.90;47.09
51496;BME280;37572;52.094;4.870;2024-01-10T07:12:35;103064.84;;;-0.92;47.34
51496;BME280;37572;52.094;4.870;2024-01-10T07:15:00;103064.00;;;-0.93;47.07
51496;BME280;37572;52.094;4.870;2024-01-10T07:17:28;103066.59;;;-0.93;47.35
51496;BME280;37572;52.094;4.870;2024-01-10T07:19:53;103070.06;;;-0.92;47.09
51496;BME280;37572;52.094;4.870;2024-01-10T07:22:18;103067.47;;;-0.92;47.17
51496;BME280;37572;52.094;4.870;2024-01-10T07:24:44;103073.59;;;-0.93;46.91
51496;BME280;37572;52.094;4.870;2024-01-10T07:27:11;103071.03;;;-0.96;46.87
51496;BME280;37572;52.094;4.870;2024-01-10T07:29:37;103067.59;;;-1.00;46.74
51496;BME280;37572;52.094;4.870;2024-01-10T07:32:02;103078.94;;;-0.99;47.19
51496;BME280;37572;52.094;4.870;2024-01-10T07:34:28;103081.50;;;-0.96;46.71
51496;BME280;37572;52.094;4.870;2024-01-10T07:36:54;103079.66;;;-0.91;46.41
51496;BME280;37572;52.094;4.870;2024-01-10T07:39:19;103086.59;;;-0.90;46.24
51496;BME280;37572;52.094;4.870;2024-01-10T07:41:44;103090.06;;;-0.88;46.18
51496;BME280;37572;52.094;4.870;2024-01-10T07:44:10;103087.50;;;-0.89;45.85
51496;BME280;37572;52.094;4.870;2024-01-10T07:46:35;103090.97;;;-0.89;46.11
51496;BME280;37572;52.094;4.870;2024-01-10T07:49:03;103096.19;;;-0.89;45.78
51496;BME280;37572;52.094;4.870;2024-01-10T07:51:29;103092.69;;;-0.88;45.63
51496;BME280;37572;52.094;4.870;2024-01-10T07:53:55;103099.59;;;-0.84;45.73
51496;BME280;37572;52.094;4.870;2024-01-10T07:56:20;103098.69;;;-0.81;45.75
51496;BME280;37572;52.094;4.870;2024-01-10T07:58:45;103098.63;;;-0.78;45.67
51496;BME280;37572;52.094;4.870;2024-01-10T08:01:10;103105.53;;;-0.74;45.28
51496;BME280;37572;52.094;4.870;2024-01-10T08:03:36;103102.03;;;-0.73;45.36
51496;BME280;37572;52.094;4.870;2024-01-10T08:06:02;103115.09;;;-0.71;45.34
51496;BME280;37572;52.094;4.870;2024-01-10T08:08:28;103114.22;;;-0.72;45.03
51496;BME280;37572;52.094;4.870;2024-01-10T08:10:53;103111.56;;;-0.70;45.14
51496;BME280;37572;52.094;4.870;2024-01-10T08:13:19;103112.44;;;-0.70;44.87
51496;BME280;37572;52.094;4.870;2024-01-10T08:15:44;103115.91;;;-0.68;44.92
51496;BME280;37572;52.094;4.870;2024-01-10T08:18:10;103101.88;;;-0.65;44.89
51496;BME280;37572;52.094;4.870;2024-01-10T08:20:35;103093.13;;;-0.63;44.73
51496;BME280;37572;52.094;4.870;2024-01-10T08:23:00;103104.44;;;-0.62;45.11
51496;BME280;37572;52.094;4.870;2024-01-10T08:25:26;103107.97;;;-0.63;45.28
51496;BME280;37572;52.094;4.870;2024-01-10T08:27:51;103114.94;;;-0.64;44.96
51496;BME280;37572;52.094;4.870;2024-01-10T08:30:19;103109.78;;;-0.68;45.11
51496;BME280;37572;52.094;4.870;2024-01-10T08:32:46;103110.63;;;-0.66;45.33
51496;BME280;37572;52.094;4.870;2024-01-10T08:35:12;103104.50;;;-0.65;45.02
51496;BME280;37572;52.094;4.870;2024-01-10T08:37:37;103100.94;;;-0.61;45.15
51496;BME280;37572;52.094;4.870;2024-01-10T08:40:03;103107.00;;;-0.59;45.28
51496;BME280;37572;52.094;4.870;2024-01-10T08:42:33;103102.59;;;-0.57;44.77
51496;BME280;37572;52.094;4.870;2024-01-10T08:44:58;103101.72;;;-0.56;44.66
51496;BME280;37572;52.094;4.870;2024-01-10T08:47:23;103100.75;;;-0.52;44.95
51496;BME280;37572;52.094;4.870;2024-01-10T08:49:49;103103.31;;;-0.49;44.89
51496;BME280;37572;52.094;4.870;2024-01-10T08:52:14;103104.09;;;-0.44;44.75
51496;BME280;37572;52.094;4.870;2024-01-10T08:54:40;103092.69;;;-0.40;44.55
51496;BME280;37572;52.094;4.870;2024-01-10T08:57:05;103087.38;;;-0.35;44.46
51496;BME280;37572;52.094;4.870;2024-01-10T08:59:30;103092.47;;;-0.29;44.42
51496;BME280;37572;52.094;4.870;2024-01-10T09:01:56;103096.75;;;-0.23;44.33
51496;BME280;37572;52.094;4.870;2024-01-10T09:04:21;103093.16;;;-0.19;44.33
51496;BME280;37572;52.094;4.870;2024-01-10T09:06:46;103096.53;;;-0.14;44.33
51496;BME280;37572;52.094;4.870;2024-01-10T09:09:12;103094.63;;;-0.06;44.19
51496;BME280;37572;52.094;4.870;2024-01-10T09:11:45;103096.22;;;0.02;43.93
51496;BME280;37572;52.094;4.870;2024-01-10T09:14:11;103103.94;;;0.09;43.75
51496;BME280;37572;52.094;4.870;2024-01-10T09:16:36;103103.66;;;0.22;43.74
51496;BME280;37572;52.094;4.870;2024-01-10T09:19:01;103089.44;;;0.33;43.34
51496;BME280;37572;52.094;4.870;2024-01-10T09:21:26;103083.91;;;0.46;43.36
51496;BME280;37572;52.094;4.870;2024-01-10T09:23:52;103095.03;;;0.57;42.92
51496;BME280;37572;52.094;4.870;2024-01-10T09:26:18;103087.00;;;0.63;42.61
51496;BME280;37572;52.094;4.870;2024-01-10T09:28:43;103082.53;;;0.68;42.27
51496;BME280;37572;52.094;4.870;2024-01-10T09:31:09;103075.44;;;0.72;42.56
51496;BME280;37572;52.094;4.870;2024-01-10T09:33:34;103078.03;;;0.73;42.49
51496;BME280;37572;52.094;4.870;2024-01-10T09:36:00;103077.94;;;0.77;42.65
51496;BME280;37572;52.094;4.870;2024-01-10T09:38:25;103077.91;;;0.78;41.83
51496;BME280;37572;52.094;4.870;2024-01-10T09:40:53;103080.41;;;0.83;42.11
51496;BME280;37572;52.094;4.870;2024-01-10T09:43:23;103080.28;;;0.89;41.76
51496;BME280;37572;52.094;4.870;2024-01-10T09:45:49;103081.91;;;0.93;41.56
51496;BME280;37572;52.094;4.870;2024-01-10T09:48:15;103084.31;;;1.02;41.56
51496;BME280;37572;52.094;4.870;2024-01-10T09:50:41;103079.75;;;1.09;41.30
51496;BME280;37572;52.094;4.870;2024-01-10T09:53:07;103089.16;;;1.18;40.38
51496;BME280;37572;52.094;4.870;2024-01-10T09:55:36;103098.59;;;1.25;40.21
51496;BME280;37572;52.094;4.870;2024-01-10T09:58:06;103098.41;;;1.33;40.43
51496;BME280;37572;52.094;4.870;2024-01-10T10:00:34;103079.84;;;1.40;40.48
51496;BME280;37572;52.094;4.870;2024-01-10T10:03:04;103083.03;;;1.52;40.07
51496;BME280;37572;52.094;4.870;2024-01-10T10:05:31;103085.31;;;1.64;40.18
51496;BME280;37572;52.094;4.870;2024-01-10T10:07:59;103093.03;;;1.70;38.89
51496;BME280;37572;52.094;4.870;2024-01-10T10:10:24;103088.47;;;1.77;38.83
51496;BME280;37572;52.094;4.870;2024-01-10T10:12:53;103085.56;;;1.86;39.26
51496;BME280;37572;52.094;4.870;2024-01-10T10:15:21;103088.75;;;1.97;39.43
51496;BME280;37572;52.094;4.870;2024-01-10T10:17:48;103082.09;;;2.15;39.16
51496;BME280;37572;52.094;4.870;2024-01-10T10:22:58;103073.50;;;2.38;38.67
51496;BME280;37572;52.094;4.870;2024-01-10T10:25:30;103073.28;;;2.45;37.50
51496;BME280;37572;52.094;4.870;2024-01-10T10:27:56;103071.38;;;2.50;37.53
51496;BME280;37572;52.094;4.870;2024-01-10T10:30:22;103072.09;;;2.55;37.59
51496;BME280;37572;52.094;4.870;2024-01-10T10:32:48;103060.50;;;2.61;37.45
51496;BME280;37572;52.094;4.870;2024-01-10T10:35:13;103065.59;;;2.67;37.73
51496;BME280;37572;52.094;4.870;2024-01-10T10:37:38;103065.50;;;2.70;36.66
51496;BME280;37572;52.094;4.870;2024-01-10T10:40:04;103063.75;;;2.69;36.60
51496;BME280;37572;52.094;4.870;2024-01-10T10:42:30;103055.78;;;2.72;36.71
51496;BME280;37572;52.094;4.870;2024-01-10T10:45:01;103067.91;;;2.76;37.34
51496;BME280;37572;52.094;4.870;2024-01-10T10:47:33;103063.34;;;2.81;37.07
51496;BME280;37572;52.094;4.870;2024-01-10T10:50:03;103062.25;;;2.88;36.45
51496;BME280;37572;52.094;4.870;2024-01-10T10:52:29;103057.47;;;3.00;36.70
51496;BME280;37572;52.094;4.870;2024-01-10T10:54:56;103068.53;;;3.09;36.71
51496;BME280;37572;52.094;4.870;2024-01-10T10:57:26;103062.97;;;3.19;36.55
51496;BME280;37572;52.094;4.870;2024-01-10T10:59:53;103069.38;;;3.37;35.82
51496;BME280;37572;52.094;4.870;2024-01-10T11:02:22;103066.28;;;3.49;35.76
51496;BME280;37572;52.094;4.870;2024-01-10T11:04:53;103070.41;;;3.56;35.18
51496;BME280;37572;52.094;4.870;2024-01-10T11:07:19;103066.88;;;3.57;35.34
51496;BME280;37572;52.094;4.870;2024-01-10T11:09:45;103069.47;;;3.59;36.08
51496;BME280;37572;52.094;4.870;2024-01-10T11:15:19;103061.97;;;3.72;34.88
51496;BME280;37572;52.094;4.870;2024-01-10T11:17:57;103059.16;;;3.76;34.94
51496;BME280;37572;52.094;4.870;2024-01-10T11:23:16;103064.75;;;4.14;34.66
51496;BME280;37572;52.094;4.870;2024-01-10T11:25:47;103057.53;;;4.41;34.55
51496;BME280;37572;52.094;4.870;2024-01-10T11:28:13;103054.53;;;4.51;33.87
51496;BME280;37572;52.094;4.870;2024-01-10T11:30:50;103055.53;;;4.48;33.75
51496;BME280;37572;52.094;4.870;2024-01-10T11:33:33;103060.25;;;4.40;33.75
51496;BME280;37572;52.094;4.870;2024-01-10T11:36:27;103059.91;;;4.25;33.63
51496;BME280;37572;52.094;4.870;2024-01-10T11:38:58;103054.47;;;4.08;33.37
51496;BME280;37572;52.094;4.870;2024-01-10T11:41:27;103052.16;;;3.99;33.35
51496;BME280;37572;52.094;4.870;2024-01-10T11:46:48;103044.53;;;3.91;34.03
51496;BME280;37572;52.094;4.870;2024-01-10T11:49:16;103041.03;;;3.91;34.41
51496;BME280;37572;52.094;4.870;2024-01-10T11:51:43;103041.72;;;3.96;34.36
51496;BME280;37572;52.094;4.870;2024-01-10T11:54:10;103045.91;;;4.01;34.19
51496;BME280;37572;52.094;4.870;2024-01-10T11:56:39;103043.03;;;4.07;34.08
51496;BME280;37572;52.094;4.870;2024-01-10T11:59:10;103038.13;;;4.20;33.86
51496;BME280;37572;52.094;4.870;2024-01-10T12:01:40;103047.91;;;4.40;34.39
51496;BME280;37572;52.094;4.870;2024-01-10T12:04:06;103043.50;;;4.63;33.95
51496;BME280;37572;52.094;4.870;2024-01-10T12:06:34;103045.03;;;4.89;33.98
51496;BME280;37572;52.094;4.870;2024-01-10T12:09:00;103033.22;;;5.18;33.89
51496;BME280;37572;52.094;4.870;2024-01-10T12:11:30;103041.09;;;5.60;33.76
51496;BME280;37572;52.094;4.870;2024-01-10T12:13:55;103034.00;;;6.00;33.20
51496;BME280;37572;52.094;4.870;2024-01-10T12:16:23;103034.25;;;6.32;32.86
51496;BME280;37572;52.094;4.870;2024-01-10T12:18:48;103027.69;;;6.58;32.24
51496;BME280;37572;52.094;4.870;2024-01-10T12:21:13;103022.03;;;6.83;32.31
51496;BME280;37572;52.094;4.870;2024-01-10T12:23:39;103021.03;;;7.19;31.96
51496;BME280;37572;52.094;4.870;2024-01-10T12:26:10;103007.81;;;7.68;31.89
51496;BME280;37572;52.094;4.870;2024-01-10T12:28:38;103017.66;;;8.30;31.17
51496;BME280;37572;52.094;4.870;2024-01-10T12:31:04;103004.59;;;8.87;30.93
51496;BME280;37572;52.094;4.870;2024-01-10T12:33:31;103010.38;;;9.53;30.82
51496;BME280;37572;52.094;4.870;2024-01-10T12:36:10;103009.75;;;10.33;29.65
51496;BME280;37572;52.094;4.870;2024-01-10T12:38:38;103013.22;;;11.01;29.33
51496;BME280;37572;52.094;4.870;2024-01-10T12:41:04;103015.94;;;11.63;28.63
51496;BME280;37572;52.094;4.870;2024-01-10T12:43:30;103019.13;;;12.18;27.62
51496;BME280;37572;52.094;4.870;2024-01-10T12:46:22;103008.34;;;12.91;27.43
51496;BME280;37572;52.094;4.870;2024-01-10T12:49:06;102998.94;;;13.55;26.95
51496;BME280;37572;52.094;4.870;2024-01-10T12:51:33;103007.75;;;14.00;26.36
51496;BME280;37572;52.094;4.870;2024-01-10T12:54:01;103006.41;;;14.38;25.72
51496;BME280;37572;52.094;4.870;2024-01-10T12:56:27;103005.31;;;14.73;25.12
51496;BME280;37572;52.094;4.870;2024-01-10T12:58:53;103011.38;;;14.96;25.00